Portada
METAR-TAF:

METAR-TAF

Aeropuertos :

Carcasona, Francia

latitud: 43-13N, longitud: 002-19E, altitud: 130 m

Observación

El informe se hizo hace 31 minutos, a las 07:30 UTC
Viento 14 kt del oeste
Temperatura 14°C
Humedad 94%
Presión 1018 hPa
Visibilidad 10 km o más
Cielo cubierto a una altura de 900 ft

METAR: LFMK 250730Z AUTO 28014KT 9999 OVC009 14/13 Q1018 BECMG RA BKN010 OVC015

Hora: 10:01 (08:01 UTC)

Pronóstico

El informe se hizo hace 2 horas y 12 minutos, a las 05:49 UTC
Pronóstico válido del 25 a las 05 UTC al 26 a las 03 UTC
Viento 15 kt del oeste
Visibilidad: 5000 m
Cielo nuboso a una altura de 1000 ft
Cielo cubierto a una altura de 1500 ft
lluvia
Evolucionando progresivamente
del 25 a las 10 UTC al 25 a las 12 UTC
Viento 15 kt del oeste con ráfagas de 27 kt
Visibilidad 10 km o más
Nubes dispersas a una altura de 2000 ft

TAF: LFMK 250549Z 2505/2603 28015KT 5000 RA BKN010 OVC015 BECMG 2510/2512 27015G27KT 9999 SCT020

Observaciones y pronósticos meteorológicos de más de 4000 aeropuertos (mensajes METAR y TAF).

Los puntos amarillos y rojos representan las estaciones disponibles.

Ponga el ratón en el punto deseado para ver el nombre de la estación.

Haga clic para ver las observaciones y los pronósticos meteorológicos.

Para cambiar el mapa : haga clic en los botones verdes con una cruz de color negro para hacer un zoom, en el botón verde con un guión para alejar o en las flechas verdes para mapas adyacentes.


METAR-TAF: